sensor_id;sensor_type;location;lat;lon;timestamp;temperature;humidity
29849;DHT22;16728;50.832;5.590;2022-11-20T00:00:47;5.30;99.90
29849;DHT22;16728;50.832;5.590;2022-11-20T00:03:51;5.30;99.90
29849;DHT22;16728;50.832;5.590;2022-11-20T00:06:53;5.40;99.90
29849;DHT22;16728;50.832;5.590;2022-11-20T00:09:55;5.40;99.90
29849;DHT22;16728;50.832;5.590;2022-11-20T00:12:59;5.50;99.90
29849;DHT22;16728;50.832;5.590;2022-11-20T00:16:03;5.60;99.90
29849;DHT22;16728;50.832;5.590;2022-11-20T00:19:05;5.70;99.90
29849;DHT22;16728;50.832;5.590;2022-11-20T00:22:07;5.60;99.90
29849;DHT22;16728;50.832;5.590;2022-11-20T00:25:09;5.60;99.90
29849;DHT22;16728;50.832;5.590;2022-11-20T00:28:11;5.60;99.90
29849;DHT22;16728;50.832;5.590;2022-11-20T00:31:15;5.60;99.90
29849;DHT22;16728;50.832;5.590;2022-11-20T00:34:17;5.60;99.90
29849;DHT22;16728;50.832;5.590;2022-11-20T00:37:18;5.60;99.90
29849;DHT22;16728;50.832;5.590;2022-11-20T00:40:20;5.60;99.90
29849;DHT22;16728;50.832;5.590;2022-11-20T00:43:22;5.60;99.90
29849;DHT22;16728;50.832;5.590;2022-11-20T00:46:26;5.60;99.90
29849;DHT22;16728;50.832;5.590;2022-11-20T00:49:28;5.50;99.90
29849;DHT22;16728;50.832;5.590;2022-11-20T00:52:29;5.50;99.90
29849;DHT22;16728;50.832;5.590;2022-11-20T00:55:31;5.50;99.90
29849;DHT22;16728;50.832;5.590;2022-11-20T00:58:35;5.50;99.90
29849;DHT22;16728;50.832;5.590;2022-11-20T01:01:38;5.60;99.90
29849;DHT22;16728;50.832;5.590;2022-11-20T01:04:40;5.60;99.90
29849;DHT22;16728;50.832;5.590;2022-11-20T01:07:41;5.50;99.90
29849;DHT22;16728;50.832;5.590;2022-11-20T01:10:43;5.60;99.90
29849;DHT22;16728;50.832;5.590;2022-11-20T01:13:46;5.60;99.90
29849;DHT22;16728;50.832;5.590;2022-11-20T01:16:50;5.60;99.90
29849;DHT22;16728;50.832;5.590;2022-11-20T01:19:52;5.60;99.90
29849;DHT22;16728;50.832;5.590;2022-11-20T01:22:54;5.40;99.90
29849;DHT22;16728;50.832;5.590;2022-11-20T01:25:56;5.30;99.90
29849;DHT22;16728;50.832;5.590;2022-11-20T01:28:58;5.30;99.90
29849;DHT22;16728;50.832;5.590;2022-11-20T01:32:01;5.10;99.90
29849;DHT22;16728;50.832;5.590;2022-11-20T01:35:02;5.10;99.90
29849;DHT22;16728;50.832;5.590;2022-11-20T01:38:04;5.20;99.90
29849;DHT22;16728;50.832;5.590;2022-11-20T01:41:07;5.20;99.90
29849;DHT22;16728;50.832;5.590;2022-11-20T01:44:11;5.20;99.90
29849;DHT22;16728;50.832;5.590;2022-11-20T01:47:17;5.20;99.90
29849;DHT22;16728;50.832;5.590;2022-11-20T01:50:27;5.20;99.90
29849;DHT22;16728;50.832;5.590;2022-11-20T01:53:33;5.20;99.90
29849;DHT22;16728;50.832;5.590;2022-11-20T01:56:38;5.20;99.90
29849;DHT22;16728;50.832;5.590;2022-11-20T01:59:50;5.20;99.90
29849;DHT22;16728;50.832;5.590;2022-11-20T02:02:56;5.30;99.90
29849;DHT22;16728;50.832;5.590;2022-11-20T02:06:14;5.20;99.90
29849;DHT22;16728;50.832;5.590;2022-11-20T02:09:16;5.20;99.90
29849;DHT22;16728;50.832;5.590;2022-11-20T02:12:19;5.30;99.90
29849;DHT22;16728;50.832;5.590;2022-11-20T02:15:40;5.20;99.90
29849;DHT22;16728;50.832;5.590;2022-11-20T02:18:43;5.10;99.90
29849;DHT22;16728;50.832;5.590;2022-11-20T02:22:11;5.20;99.90
29849;DHT22;16728;50.832;5.590;2022-11-20T02:25:15;5.20;99.90
29849;DHT22;16728;50.832;5.590;2022-11-20T02:28:18;5.10;99.90
29849;DHT22;16728;50.832;5.590;2022-11-20T02:31:20;5.20;99.90
29849;DHT22;16728;50.832;5.590;2022-11-20T02:34:21;5.20;99.90
29849;DHT22;16728;50.832;5.590;2022-11-20T02:37:29;5.20;99.90
29849;DHT22;16728;50.832;5.590;2022-11-20T02:40:32;5.20;99.90
29849;DHT22;16728;50.832;5.590;2022-11-20T02:43:34;5.10;99.90
29849;DHT22;16728;50.832;5.590;2022-11-20T02:46:35;5.20;99.90
29849;DHT22;16728;50.832;5.590;2022-11-20T02:49:37;5.20;99.90
29849;DHT22;16728;50.832;5.590;2022-11-20T02:52:39;5.10;99.90
29849;DHT22;16728;50.832;5.590;2022-11-20T02:55:41;5.20;99.90
29849;DHT22;16728;50.832;5.590;2022-11-20T02:58:42;5.20;99.90
29849;DHT22;16728;50.832;5.590;2022-11-20T03:01:44;5.10;99.90
29849;DHT22;16728;50.832;5.590;2022-11-20T03:04:46;5.20;99.90
29849;DHT22;16728;50.832;5.590;2022-11-20T03:07:48;5.30;99.90
29849;DHT22;16728;50.832;5.590;2022-11-20T03:10:50;5.10;99.90
29849;DHT22;16728;50.832;5.590;2022-11-20T03:13:52;5.20;99.90
29849;DHT22;16728;50.832;5.590;2022-11-20T03:16:54;5.10;99.90
29849;DHT22;16728;50.832;5.590;2022-11-20T03:19:56;5.20;99.90
29849;DHT22;16728;50.832;5.590;2022-11-20T03:22:58;5.20;99.90
29849;DHT22;16728;50.832;5.590;2022-11-20T03:26:30;5.10;99.90
29849;DHT22;16728;50.832;5.590;2022-11-20T03:29:31;5.10;99.90
29849;DHT22;16728;50.832;5.590;2022-11-20T03:32:33;5.10;99.90
29849;DHT22;16728;50.832;5.590;2022-11-20T03:35:35;5.00;99.90
29849;DHT22;16728;50.832;5.590;2022-11-20T03:38:37;5.00;99.90
29849;DHT22;16728;50.832;5.590;2022-11-20T03:41:41;5.10;99.90
29849;DHT22;16728;50.832;5.590;2022-11-20T03:44:43;5.10;99.90
29849;DHT22;16728;50.832;5.590;2022-11-20T03:47:45;5.20;99.90
29849;DHT22;16728;50.832;5.590;2022-11-20T03:50:47;5.20;99.90
29849;DHT22;16728;50.832;5.590;2022-11-20T03:53:50;5.20;99.90
29849;DHT22;16728;50.832;5.590;2022-11-20T03:56:52;5.10;99.90
29849;DHT22;16728;50.832;5.590;2022-11-20T03:59:54;5.00;99.90
29849;DHT22;16728;50.832;5.590;2022-11-20T04:03:00;5.00;99.90
29849;DHT22;16728;50.832;5.590;2022-11-20T04:06:07;5.00;99.90
29849;DHT22;16728;50.832;5.590;2022-11-20T04:09:10;5.00;99.90
29849;DHT22;16728;50.832;5.590;2022-11-20T04:12:12;5.10;99.90
29849;DHT22;16728;50.832;5.590;2022-11-20T04:15:14;5.00;99.90
29849;DHT22;16728;50.832;5.590;2022-11-20T04:18:16;5.00;99.90
29849;DHT22;16728;50.832;5.590;2022-11-20T04:21:17;5.00;99.90
29849;DHT22;16728;50.832;5.590;2022-11-20T04:24:19;5.10;99.90
29849;DHT22;16728;50.832;5.590;2022-11-20T04:27:21;5.10;99.90
29849;DHT22;16728;50.832;5.590;2022-11-20T04:30:23;5.10;99.90
29849;DHT22;16728;50.832;5.590;2022-11-20T04:33:25;5.10;99.90
29849;DHT22;16728;50.832;5.590;2022-11-20T04:36:30;5.10;99.90
29849;DHT22;16728;50.832;5.590;2022-11-20T04:39:32;5.10;99.90
29849;DHT22;16728;50.832;5.590;2022-11-20T04:42:33;5.00;99.90
29849;DHT22;16728;50.832;5.590;2022-11-20T04:45:36;5.00;99.90
29849;DHT22;16728;50.832;5.590;2022-11-20T04:48:37;5.10;99.90
29849;DHT22;16728;50.832;5.590;2022-11-20T04:51:39;5.10;99.90
29849;DHT22;16728;50.832;5.590;2022-11-20T04:54:41;5.00;99.90
29849;DHT22;16728;50.832;5.590;2022-11-20T04:57:43;5.00;99.90
29849;DHT22;16728;50.832;5.590;2022-11-20T05:00:44;5.00;99.90
29849;DHT22;16728;50.832;5.590;2022-11-20T05:03:47;5.10;99.90
29849;DHT22;16728;50.832;5.590;2022-11-20T05:06:50;5.00;99.90
29849;DHT22;16728;50.832;5.590;2022-11-20T05:09:52;5.00;99.90
29849;DHT22;16728;50.832;5.590;2022-11-20T05:12:54;5.00;99.90
29849;DHT22;16728;50.832;5.590;2022-11-20T05:16:07;4.90;99.90
29849;DHT22;16728;50.832;5.590;2022-11-20T05:19:10;4.90;99.90
29849;DHT22;16728;50.832;5.590;2022-11-20T05:22:12;4.90;99.90
29849;DHT22;16728;50.832;5.590;2022-11-20T05:25:14;5.00;99.90
29849;DHT22;16728;50.832;5.590;2022-11-20T05:28:15;5.00;99.90
29849;DHT22;16728;50.832;5.590;2022-11-20T05:31:19;5.00;99.90
29849;DHT22;16728;50.832;5.590;2022-11-20T05:34:28;5.00;99.90
29849;DHT22;16728;50.832;5.590;2022-11-20T05:37:30;5.00;99.90
29849;DHT22;16728;50.832;5.590;2022-11-20T05:40:32;5.10;99.90
29849;DHT22;16728;50.832;5.590;2022-11-20T05:43:38;5.00;99.90
29849;DHT22;16728;50.832;5.590;2022-11-20T05:46:41;5.10;99.90
29849;DHT22;16728;50.832;5.590;2022-11-20T05:49:43;5.10;99.90
29849;DHT22;16728;50.832;5.590;2022-11-20T05:52:44;5.00;99.90
29849;DHT22;16728;50.832;5.590;2022-11-20T05:55:46;5.00;99.90
29849;DHT22;16728;50.832;5.590;2022-11-20T05:58:49;5.00;99.90
29849;DHT22;16728;50.832;5.590;2022-11-20T06:01:50;5.00;99.90
29849;DHT22;16728;50.832;5.590;2022-11-20T06:04:52;5.00;99.90
29849;DHT22;16728;50.832;5.590;2022-11-20T06:07:54;5.00;99.90
29849;DHT22;16728;50.832;5.590;2022-11-20T06:10:56;5.10;99.90
29849;DHT22;16728;50.832;5.590;2022-11-20T06:13:59;5.10;99.90
29849;DHT22;16728;50.832;5.590;2022-11-20T06:17:00;5.00;99.90
29849;DHT22;16728;50.832;5.590;2022-11-20T06:20:02;5.00;99.90
29849;DHT22;16728;50.832;5.590;2022-11-20T06:23:04;5.00;99.90
29849;DHT22;16728;50.832;5.590;2022-11-20T06:26:09;5.00;99.90
29849;DHT22;16728;50.832;5.590;2022-11-20T06:29:11;5.10;99.90
29849;DHT22;16728;50.832;5.590;2022-11-20T06:32:13;5.00;99.90
29849;DHT22;16728;50.832;5.590;2022-11-20T06:35:15;5.00;99.90
29849;DHT22;16728;50.832;5.590;2022-11-20T06:38:17;5.00;99.90
29849;DHT22;16728;50.832;5.590;2022-11-20T06:41:20;5.10;99.90
29849;DHT22;16728;50.832;5.590;2022-11-20T06:44:22;5.10;99.90
29849;DHT22;16728;50.832;5.590;2022-11-20T06:47:24;5.00;99.90
29849;DHT22;16728;50.832;5.590;2022-11-20T06:50:25;5.10;99.90
29849;DHT22;16728;50.832;5.590;2022-11-20T06:53:27;5.10;99.90
29849;DHT22;16728;50.832;5.590;2022-11-20T06:56:29;5.10;99.90
29849;DHT22;16728;50.832;5.590;2022-11-20T06:59:31;5.10;99.90
29849;DHT22;16728;50.832;5.590;2022-11-20T07:02:33;5.10;99.90
29849;DHT22;16728;50.832;5.590;2022-11-20T07:05:35;5.10;99.90
29849;DHT22;16728;50.832;5.590;2022-11-20T07:08:37;5.10;99.90
29849;DHT22;16728;50.832;5.590;2022-11-20T07:11:39;5.10;99.90
29849;DHT22;16728;50.832;5.590;2022-11-20T07:14:42;5.10;99.90
29849;DHT22;16728;50.832;5.590;2022-11-20T07:17:44;5.10;99.90
29849;DHT22;16728;50.832;5.590;2022-11-20T07:20:46;5.10;99.90
29849;DHT22;16728;50.832;5.590;2022-11-20T07:23:48;5.10;99.90
29849;DHT22;16728;50.832;5.590;2022-11-20T07:26:50;5.10;99.90
29849;DHT22;16728;50.832;5.590;2022-11-20T07:29:51;5.10;99.90
29849;DHT22;16728;50.832;5.590;2022-11-20T07:32:55;5.10;99.90
29849;DHT22;16728;50.832;5.590;2022-11-20T07:35:59;5.20;99.90
29849;DHT22;16728;50.832;5.590;2022-11-20T07:39:01;5.20;99.90
29849;DHT22;16728;50.832;5.590;2022-11-20T07:42:03;5.10;99.90
29849;DHT22;16728;50.832;5.590;2022-11-20T07:45:05;5.10;99.90
29849;DHT22;16728;50.832;5.590;2022-11-20T07:48:07;5.20;99.90
29849;DHT22;16728;50.832;5.590;2022-11-20T07:51:09;5.30;99.90
29849;DHT22;16728;50.832;5.590;2022-11-20T07:54:11;5.30;99.90
29849;DHT22;16728;50.832;5.590;2022-11-20T07:57:13;5.30;99.90
29849;DHT22;16728;50.832;5.590;2022-11-20T08:00:15;5.30;99.90
29849;DHT22;16728;50.832;5.590;2022-11-20T08:03:17;5.30;99.90
29849;DHT22;16728;50.832;5.590;2022-11-20T08:06:25;5.30;99.90
29849;DHT22;16728;50.832;5.590;2022-11-20T08:09:27;5.20;99.90
29849;DHT22;16728;50.832;5.590;2022-11-20T08:12:29;5.30;99.90
29849;DHT22;16728;50.832;5.590;2022-11-20T08:15:51;5.30;99.90
29849;DHT22;16728;50.832;5.590;2022-11-20T08:18:52;5.30;99.90
29849;DHT22;16728;50.832;5.590;2022-11-20T08:21:55;5.40;99.90
29849;DHT22;16728;50.832;5.590;2022-11-20T08:24:57;5.40;99.90
29849;DHT22;16728;50.832;5.590;2022-11-20T08:28:00;5.50;99.90
29849;DHT22;16728;50.832;5.590;2022-11-20T08:31:16;5.50;99.90
29849;DHT22;16728;50.832;5.590;2022-11-20T08:34:18;5.60;99.90
29849;DHT22;16728;50.832;5.590;2022-11-20T08:37:19;5.60;99.90
29849;DHT22;16728;50.832;5.590;2022-11-20T08:40:21;5.70;99.90
29849;DHT22;16728;50.832;5.590;2022-11-20T08:43:23;5.60;99.90
29849;DHT22;16728;50.832;5.590;2022-11-20T08:46:27;5.70;99.90
29849;DHT22;16728;50.832;5.590;2022-11-20T08:49:29;5.80;99.90
29849;DHT22;16728;50.832;5.590;2022-11-20T08:52:31;5.70;99.90
29849;DHT22;16728;50.832;5.590;2022-11-20T08:55:40;5.70;99.90
29849;DHT22;16728;50.832;5.590;2022-11-20T08:58:41;5.80;99.90
29849;DHT22;16728;50.832;5.590;2022-11-20T09:02:03;5.80;99.90
29849;DHT22;16728;50.832;5.590;2022-11-20T09:05:05;5.80;99.90
29849;DHT22;16728;50.832;5.590;2022-11-20T09:08:07;5.80;99.90
29849;DHT22;16728;50.832;5.590;2022-11-20T09:11:10;5.80;99.90
29849;DHT22;16728;50.832;5.590;2022-11-20T09:14:12;5.80;99.90
29849;DHT22;16728;50.832;5.590;2022-11-20T09:17:14;5.90;99.90
29849;DHT22;16728;50.832;5.590;2022-11-20T09:20:16;5.90;99.90
29849;DHT22;16728;50.832;5.590;2022-11-20T09:23:18;6.00;99.90
29849;DHT22;16728;50.832;5.590;2022-11-20T09:26:20;6.00;99.90
29849;DHT22;16728;50.832;5.590;2022-11-20T09:29:22;6.00;99.90
29849;DHT22;16728;50.832;5.590;2022-11-20T09:32:24;6.10;99.90
29849;DHT22;16728;50.832;5.590;2022-11-20T09:35:26;6.10;99.90
29849;DHT22;16728;50.832;5.590;2022-11-20T09:38:27;6.20;99.90
29849;DHT22;16728;50.832;5.590;2022-11-20T09:55:36;6.30;99.90
29849;DHT22;16728;50.832;5.590;2022-11-20T09:58:50;6.30;99.90
29849;DHT22;16728;50.832;5.590;2022-11-20T10:01:54;6.30;99.90
29849;DHT22;16728;50.832;5.590;2022-11-20T10:05:17;6.40;99.90
29849;DHT22;16728;50.832;5.590;2022-11-20T10:11:37;6.40;99.90
29849;DHT22;16728;50.832;5.590;2022-11-20T10:14:52;6.50;99.90
29849;DHT22;16728;50.832;5.590;2022-11-20T10:24:32;6.60;99.90
29849;DHT22;16728;50.832;5.590;2022-11-20T10:31:34;6.60;99.90
29849;DHT22;16728;50.832;5.590;2022-11-20T10:37:46;6.70;99.90
29849;DHT22;16728;50.832;5.590;2022-11-20T10:40:56;6.70;99.90
29849;DHT22;16728;50.832;5.590;2022-11-20T10:44:28;6.70;99.90
29849;DHT22;16728;50.832;5.590;2022-11-20T10:48:10;6.70;99.90
29849;DHT22;16728;50.832;5.590;2022-11-20T10:51:35;6.80;99.90
29849;DHT22;16728;50.832;5.590;2022-11-20T10:54:57;6.90;99.90
29849;DHT22;16728;50.832;5.590;2022-11-20T11:01:11;6.90;99.90
29849;DHT22;16728;50.832;5.590;2022-11-20T11:04:42;7.00;99.90
29849;DHT22;16728;50.832;5.590;2022-11-20T11:07:49;7.00;99.90
29849;DHT22;16728;50.832;5.590;2022-11-20T11:10:54;7.00;99.90
29849;DHT22;16728;50.832;5.590;2022-11-20T11:14:13;7.00;99.90
29849;DHT22;16728;50.832;5.590;2022-11-20T11:17:33;7.00;99.90
29849;DHT22;16728;50.832;5.590;2022-11-20T11:20:35;7.00;99.90
29849;DHT22;16728;50.832;5.590;2022-11-20T11:23:40;7.20;99.90
29849;DHT22;16728;50.832;5.590;2022-11-20T11:26:55;7.20;99.90
29849;DHT22;16728;50.832;5.590;2022-11-20T11:30:12;7.30;99.90
29849;DHT22;16728;50.832;5.590;2022-11-20T11:33:24;7.30;99.90
29849;DHT22;16728;50.832;5.590;2022-11-20T11:36:26;7.30;99.90
29849;DHT22;16728;50.832;5.590;2022-11-20T11:39:29;7.50;99.90
29849;DHT22;16728;50.832;5.590;2022-11-20T11:42:32;7.50;99.90
29849;DHT22;16728;50.832;5.590;2022-11-20T11:45:34;7.50;99.90
29849;DHT22;16728;50.832;5.590;2022-11-20T11:48:36;7.50;99.90
29849;DHT22;16728;50.832;5.590;2022-11-20T11:51:46;7.50;99.90
29849;DHT22;16728;50.832;5.590;2022-11-20T11:54:53;7.50;99.90
29849;DHT22;16728;50.832;5.590;2022-11-20T11:58:16;7.60;99.90
29849;DHT22;16728;50.832;5.590;2022-11-20T12:01:27;7.70;99.90
29849;DHT22;16728;50.832;5.590;2022-11-20T12:04:42;7.80;99.90
29849;DHT22;16728;50.832;5.590;2022-11-20T12:11:24;7.90;99.90
29849;DHT22;16728;50.832;5.590;2022-11-20T12:14:46;8.00;99.90
29849;DHT22;16728;50.832;5.590;2022-11-20T12:17:48;8.00;99.90
29849;DHT22;16728;50.832;5.590;2022-11-20T12:55:14;8.50;99.90
29849;DHT22;16728;50.832;5.590;2022-11-20T12:58:32;8.50;99.90
29849;DHT22;16728;50.832;5.590;2022-11-20T13:01:51;8.50;99.90
29849;DHT22;16728;50.832;5.590;2022-11-20T13:07:56;8.60;99.90
29849;DHT22;16728;50.832;5.590;2022-11-20T13:17:36;8.60;99.90
29849;DHT22;16728;50.832;5.590;2022-11-20T13:20:45;8.60;99.90
29849;DHT22;16728;50.832;5.590;2022-11-20T13:23:48;8.60;99.90
29849;DHT22;16728;50.832;5.590;2022-11-20T13:27:04;8.60;99.90
29849;DHT22;16728;50.832;5.590;2022-11-20T13:30:15;8.50;99.90
29849;DHT22;16728;50.832;5.590;2022-11-20T13:36:29;8.60;99.90
29849;DHT22;16728;50.832;5.590;2022-11-20T13:39:36;8.50;99.90
29849;DHT22;16728;50.832;5.590;2022-11-20T13:42:43;8.40;99.90
29849;DHT22;16728;50.832;5.590;2022-11-20T13:46:04;8.40;99.90
29849;DHT22;16728;50.832;5.590;2022-11-20T13:49:21;8.40;99.90
29849;DHT22;16728;50.832;5.590;2022-11-20T13:52:48;8.40;99.90
29849;DHT22;16728;50.832;5.590;2022-11-20T13:56:15;8.30;99.90
29849;DHT22;16728;50.832;5.590;2022-11-20T13:59:40;8.30;99.90
29849;DHT22;16728;50.832;5.590;2022-11-20T14:05:59;8.20;99.90
29849;DHT22;16728;50.832;5.590;2022-11-20T14:09:04;8.20;99.90
29849;DHT22;16728;50.832;5.590;2022-11-20T14:12:16;8.20;99.90
29849;DHT22;16728;50.832;5.590;2022-11-20T14:15:33;8.20;99.90
29849;DHT22;16728;50.832;5.590;2022-11-20T14:18:36;8.20;99.90
29849;DHT22;16728;50.832;5.590;2022-11-20T14:21:37;8.10;99.90
29849;DHT22;16728;50.832;5.590;2022-11-20T14:24:39;8.00;99.90
29849;DHT22;16728;50.832;5.590;2022-11-20T14:27:43;8.00;99.90
29849;DHT22;16728;50.832;5.590;2022-11-20T14:30:49;8.10;99.90
29849;DHT22;16728;50.832;5.590;2022-11-20T14:33:54;8.00;99.90
29849;DHT22;16728;50.832;5.590;2022-11-20T14:37:01;8.10;99.90
29849;DHT22;16728;50.832;5.590;2022-11-20T14:43:28;8.00;99.90
29849;DHT22;16728;50.832;5.590;2022-11-20T14:46:31;8.00;99.90
29849;DHT22;16728;50.832;5.590;2022-11-20T14:49:33;8.00;99.90
29849;DHT22;16728;50.832;5.590;2022-11-20T14:52:36;7.90;99.90
29849;DHT22;16728;50.832;5.590;2022-11-20T14:55:38;8.00;99.90
29849;DHT22;16728;50.832;5.590;2022-11-20T14:58:41;7.90;99.90
29849;DHT22;16728;50.832;5.590;2022-11-20T15:01:55;7.90;99.90
29849;DHT22;16728;50.832;5.590;2022-11-20T15:04:59;7.90;99.90
29849;DHT22;16728;50.832;5.590;2022-11-20T15:08:08;7.80;99.90
29849;DHT22;16728;50.832;5.590;2022-11-20T15:11:23;7.70;99.90
29849;DHT22;16728;50.832;5.590;2022-11-20T15:14:29;7.70;99.90
29849;DHT22;16728;50.832;5.590;2022-11-20T15:17:33;7.80;99.90
29849;DHT22;16728;50.832;5.590;2022-11-20T15:20:38;7.70;99.90
29849;DHT22;16728;50.832;5.590;2022-11-20T15:23:40;7.80;99.90
29849;DHT22;16728;50.832;5.590;2022-11-20T15:26:43;7.80;99.90
29849;DHT22;16728;50.832;5.590;2022-11-20T15:29:45;7.80;99.90
29849;DHT22;16728;50.832;5.590;2022-11-20T15:32:47;7.70;99.90
29849;DHT22;16728;50.832;5.590;2022-11-20T15:35:49;7.70;99.90
29849;DHT22;16728;50.832;5.590;2022-11-20T15:38:51;7.80;99.90
29849;DHT22;16728;50.832;5.590;2022-11-20T15:41:53;7.80;99.90
29849;DHT22;16728;50.832;5.590;2022-11-20T15:44:54;7.80;99.90
29849;DHT22;16728;50.832;5.590;2022-11-20T15:47:56;7.80;99.90
29849;DHT22;16728;50.832;5.590;2022-11-20T15:54:26;7.90;99.90
29849;DHT22;16728;50.832;5.590;2022-11-20T15:57:28;7.90;99.90
29849;DHT22;16728;50.832;5.590;2022-11-20T16:00:30;7.90;99.90
29849;DHT22;16728;50.832;5.590;2022-11-20T16:03:32;8.00;99.90
29849;DHT22;16728;50.832;5.590;2022-11-20T16:06:34;7.90;99.90
29849;DHT22;16728;50.832;5.590;2022-11-20T16:09:36;7.90;99.90
29849;DHT22;16728;50.832;5.590;2022-11-20T16:12:38;8.00;99.90
29849;DHT22;16728;50.832;5.590;2022-11-20T16:16:05;8.00;99.90
29849;DHT22;16728;50.832;5.590;2022-11-20T16:19:11;7.90;99.90
29849;DHT22;16728;50.832;5.590;2022-11-20T16:22:13;7.90;99.90
29849;DHT22;16728;50.832;5.590;2022-11-20T16:25:15;7.90;99.90
29849;DHT22;16728;50.832;5.590;2022-11-20T16:28:18;8.00;99.90
29849;DHT22;16728;50.832;5.590;2022-11-20T16:31:20;8.00;99.90
29849;DHT22;16728;50.832;5.590;2022-11-20T16:34:23;8.00;99.90
29849;DHT22;16728;50.832;5.590;2022-11-20T16:37:25;8.00;99.90
29849;DHT22;16728;50.832;5.590;2022-11-20T16:40:30;8.00;99.90
29849;DHT22;16728;50.832;5.590;2022-11-20T16:43:32;8.00;99.90
29849;DHT22;16728;50.832;5.590;2022-11-20T16:46:34;8.00;99.90
29849;DHT22;16728;50.832;5.590;2022-11-20T16:49:36;8.00;99.90
29849;DHT22;16728;50.832;5.590;2022-11-20T16:52:37;8.10;99.90
29849;DHT22;16728;50.832;5.590;2022-11-20T16:55:42;8.10;99.90
29849;DHT22;16728;50.832;5.590;2022-11-20T16:58:44;8.10;99.90
29849;DHT22;16728;50.832;5.590;2022-11-20T17:01:46;8.20;99.90
29849;DHT22;16728;50.832;5.590;2022-11-20T17:04:48;8.10;99.90
29849;DHT22;16728;50.832;5.590;2022-11-20T17:07:50;8.10;99.90
29849;DHT22;16728;50.832;5.590;2022-11-20T17:10:53;8.20;99.90
29849;DHT22;16728;50.832;5.590;2022-11-20T17:13:57;8.20;99.90
29849;DHT22;16728;50.832;5.590;2022-11-20T17:17:01;8.20;99.90
29849;DHT22;16728;50.832;5.590;2022-11-20T17:20:03;8.30;99.90
29849;DHT22;16728;50.832;5.590;2022-11-20T17:23:05;8.30;99.90
29849;DHT22;16728;50.832;5.590;2022-11-20T17:29:18;8.30;99.90
29849;DHT22;16728;50.832;5.590;2022-11-20T17:32:22;8.30;99.90
29849;DHT22;16728;50.832;5.590;2022-11-20T17:35:24;8.30;99.90
29849;DHT22;16728;50.832;5.590;2022-11-20T17:38:26;8.30;99.90
29849;DHT22;16728;50.832;5.590;2022-11-20T17:41:28;8.20;99.90
29849;DHT22;16728;50.832;5.590;2022-11-20T17:44:30;8.20;99.90
29849;DHT22;16728;50.832;5.590;2022-11-20T17:47:34;8.20;99.90
29849;DHT22;16728;50.832;5.590;2022-11-20T17:50:36;8.20;99.90
29849;DHT22;16728;50.832;5.590;2022-11-20T17:53:40;8.20;99.90
29849;DHT22;16728;50.832;5.590;2022-11-20T17:56:42;8.20;99.90
29849;DHT22;16728;50.832;5.590;2022-11-20T18:00:03;8.20;99.90
29849;DHT22;16728;50.832;5.590;2022-11-20T18:03:05;8.20;99.90
29849;DHT22;16728;50.832;5.590;2022-11-20T18:09:13;8.20;99.90
29849;DHT22;16728;50.832;5.590;2022-11-20T18:12:15;8.30;99.90
29849;DHT22;16728;50.832;5.590;2022-11-20T18:15:17;8.20;99.90
29849;DHT22;16728;50.832;5.590;2022-11-20T18:18:19;8.30;99.90
29849;DHT22;16728;50.832;5.590;2022-11-20T18:21:23;8.30;99.90
29849;DHT22;16728;50.832;5.590;2022-11-20T18:24:25;8.30;99.90
29849;DHT22;16728;50.832;5.590;2022-11-20T18:27:27;8.30;99.90
29849;DHT22;16728;50.832;5.590;2022-11-20T18:30:28;8.30;99.90
29849;DHT22;16728;50.832;5.590;2022-11-20T18:33:30;8.30;99.90
29849;DHT22;16728;50.832;5.590;2022-11-20T18:36:32;8.30;99.90
29849;DHT22;16728;50.832;5.590;2022-11-20T18:39:35;8.20;99.90
29849;DHT22;16728;50.832;5.590;2022-11-20T18:42:37;8.30;99.90
29849;DHT22;16728;50.832;5.590;2022-11-20T18:46:01;8.20;99.90
29849;DHT22;16728;50.832;5.590;2022-11-20T18:49:04;8.20;99.90
29849;DHT22;16728;50.832;5.590;2022-11-20T18:52:06;8.20;99.90
29849;DHT22;16728;50.832;5.590;2022-11-20T18:55:09;8.20;99.90
29849;DHT22;16728;50.832;5.590;2022-11-20T18:58:11;8.20;99.90
29849;DHT22;16728;50.832;5.590;2022-11-20T19:01:13;8.10;99.90
29849;DHT22;16728;50.832;5.590;2022-11-20T19:04:16;8.10;99.90
29849;DHT22;16728;50.832;5.590;2022-11-20T19:07:18;8.00;99.90
29849;DHT22;16728;50.832;5.590;2022-11-20T19:10:20;8.00;99.90
29849;DHT22;16728;50.832;5.590;2022-11-20T19:13:25;7.90;99.90
29849;DHT22;16728;50.832;5.590;2022-11-20T19:16:31;7.90;99.90
29849;DHT22;16728;50.832;5.590;2022-11-20T19:19:34;7.90;99.90
29849;DHT22;16728;50.832;5.590;2022-11-20T19:22:35;7.80;99.90
29849;DHT22;16728;50.832;5.590;2022-11-20T19:25:37;7.90;99.90
29849;DHT22;16728;50.832;5.590;2022-11-20T19:28:39;7.80;99.90
29849;DHT22;16728;50.832;5.590;2022-11-20T19:31:41;7.80;99.90
29849;DHT22;16728;50.832;5.590;2022-11-20T19:34:43;7.70;99.90
29849;DHT22;16728;50.832;5.590;2022-11-20T19:37:45;7.70;99.90
29849;DHT22;16728;50.832;5.590;2022-11-20T19:40:47;7.70;99.90
29849;DHT22;16728;50.832;5.590;2022-11-20T19:43:49;7.70;99.90
29849;DHT22;16728;50.832;5.590;2022-11-20T19:46:51;7.60;99.90
29849;DHT22;16728;50.832;5.590;2022-11-20T19:49:53;7.60;99.90
29849;DHT22;16728;50.832;5.590;2022-11-20T19:52:55;7.60;99.90
29849;DHT22;16728;50.832;5.590;2022-11-20T19:59:10;7.60;99.90
29849;DHT22;16728;50.832;5.590;2022-11-20T20:02:11;7.60;99.90
29849;DHT22;16728;50.832;5.590;2022-11-20T20:05:13;7.70;99.90
29849;DHT22;16728;50.832;5.590;2022-11-20T20:08:15;7.60;99.90
29849;DHT22;16728;50.832;5.590;2022-11-20T20:11:20;7.60;99.90
29849;DHT22;16728;50.832;5.590;2022-11-20T20:14:22;7.70;99.90
29849;DHT22;16728;50.832;5.590;2022-11-20T20:17:24;7.70;99.90
29849;DHT22;16728;50.832;5.590;2022-11-20T20:20:26;7.70;99.90
29849;DHT22;16728;50.832;5.590;2022-11-20T20:23:28;7.70;99.90
29849;DHT22;16728;50.832;5.590;2022-11-20T20:26:30;7.70;99.90
29849;DHT22;16728;50.832;5.590;2022-11-20T20:29:32;7.70;99.90
29849;DHT22;16728;50.832;5.590;2022-11-20T20:32:34;7.70;99.90
29849;DHT22;16728;50.832;5.590;2022-11-20T20:35:40;7.70;99.90
29849;DHT22;16728;50.832;5.590;2022-11-20T20:38:43;7.70;99.90
29849;DHT22;16728;50.832;5.590;2022-11-20T20:41:46;7.70;99.90
29849;DHT22;16728;50.832;5.590;2022-11-20T20:44:48;7.70;99.90
29849;DHT22;16728;50.832;5.590;2022-11-20T20:48:08;7.70;99.90
29849;DHT22;16728;50.832;5.590;2022-11-20T20:51:10;7.70;99.90
29849;DHT22;16728;50.832;5.590;2022-11-20T20:54:12;7.60;99.90
29849;DHT22;16728;50.832;5.590;2022-11-20T20:57:14;7.60;99.90
29849;DHT22;16728;50.832;5.590;2022-11-20T21:00:16;7.60;99.90
29849;DHT22;16728;50.832;5.590;2022-11-20T21:03:18;7.70;99.90
29849;DHT22;16728;50.832;5.590;2022-11-20T21:06:20;7.70;99.90
29849;DHT22;16728;50.832;5.590;2022-11-20T21:09:22;7.70;99.90
29849;DHT22;16728;50.832;5.590;2022-11-20T21:12:24;7.70;99.90
29849;DHT22;16728;50.832;5.590;2022-11-20T21:15:26;7.70;99.90
29849;DHT22;16728;50.832;5.590;2022-11-20T21:18:28;7.70;99.90
29849;DHT22;16728;50.832;5.590;2022-11-20T21:21:30;7.70;99.90
29849;DHT22;16728;50.832;5.590;2022-11-20T21:24:51;7.70;99.90
29849;DHT22;16728;50.832;5.590;2022-11-20T21:27:52;7.70;99.90